Time;durP1;ratioP1;P1;durP2;ratioP2;P2;SDS_P1;SDS_P2;PMS_P1;PMS_P2;Temp;Humidity;BMP_temperature;BMP_pressure;BME280_temperature;BME280_humidity;BME280_pressure;Samples;Min_cycle;Max_cycle;Signal;HPM_P1;HPM_P2
2023/07/03 00:01:59;;;;;;;2.55;1.63;;;;;;;26.33;57.22;100275.25;10377738;28;96766;-78
2023/07/03 00:07:03;;;;;;;2.75;1.83;;;;;;;26.57;57.00;100282.66;10376566;28;96794;-78
2023/07/03 00:12:09;;;;;;;3.22;1.63;;;;;;;26.27;57.69;100280.44;10377524;28;96856;-78
2023/07/03 00:17:12;;;;;;;2.35;1.63;;;;;;;26.64;56.82;100281.84;10384878;28;97192;-78
2023/07/03 00:22:16;;;;;;;1.93;1.57;;;;;;;26.80;56.23;100281.91;10384350;28;97174;-78
2023/07/03 00:27:21;;;;;;;2.20;1.50;;;;;;;26.64;57.04;100287.25;10383767;28;96800;-78
2023/07/03 00:32:24;;;;;;;2.97;1.60;;;;;;;26.46;57.25;100281.09;10384004;28;96731;-78
2023/07/03 00:37:28;;;;;;;3.17;1.40;;;;;;;26.46;57.45;100288.31;10413843;28;96862;-78
2023/07/03 00:42:32;;;;;;;;;;;;;;;26.27;58.20;100283.97;10402663;28;96719;-78
2023/07/03 00:47:35;;;;;;;3.47;1.92;;;;;;;26.01;58.32;100284.97;10364253;28;97117;-78
2023/07/03 00:52:39;;;;;;;2.45;1.73;;;;;;;25.86;58.87;100284.72;10398039;28;96716;-78
2023/07/03 00:57:44;;;;;;;3.13;2.00;;;;;;;25.77;59.07;100294.59;10423780;27;96818;-78
2023/07/03 01:02:51;;;;;;;2.45;1.80;;;;;;;25.72;59.55;100298.75;10385063;28;96913;-78
2023/07/03 01:07:55;;;;;;;3.55;1.98;;;;;;;25.53;59.71;100290.81;10355052;28;96807;-78
2023/07/03 01:13:04;;;;;;;4.22;1.88;;;;;;;25.46;60.07;100298.66;10424128;28;96688;-78
2023/07/03 01:18:08;;;;;;;3.58;1.70;;;;;;;25.44;59.84;100289.03;10423988;27;96737;-78
2023/07/03 01:23:20;;;;;;;2.22;1.70;;;;;;;25.24;60.37;100287.50;10422689;28;98206;-77
2023/07/03 01:28:27;;;;;;;3.13;1.73;;;;;;;25.18;60.62;100280.88;10380621;28;97217;-78
2023/07/03 01:33:32;;;;;;;2.35;1.63;;;;;;;24.98;61.13;100283.81;10379825;28;98624;-78
2023/07/03 01:38:36;;;;;;;3.70;1.80;;;;;;;25.41;60.11;100278.56;10381717;28;96842;-78
2023/07/03 01:43:41;;;;;;;2.83;1.83;;;;;;;25.54;59.56;100281.69;10395663;28;96675;-78
2023/07/03 01:48:45;;;;;;;2.67;1.50;;;;;;;25.74;58.95;100280.59;10420333;28;96807;-78
2023/07/03 01:53:57;;;;;;;2.28;1.50;;;;;;;25.80;59.01;100272.72;10381014;28;96895;-78
2023/07/03 01:59:08;;;;;;;2.50;1.83;;;;;;;25.84;59.10;100284.03;10381383;28;96902;-78
2023/07/03 02:04:18;;;;;;;1.83;1.40;;;;;;;25.61;59.85;100277.38;10380641;28;96840;-78
2023/07/03 02:09:22;;;;;;;2.97;1.92;;;;;;;25.61;59.71;100282.78;10381105;28;97449;-78
2023/07/03 02:14:27;;;;;;;2.35;1.70;;;;;;;25.52;60.15;100291.81;10380309;28;96830;-78
2023/07/03 02:19:31;;;;;;;2.97;1.63;;;;;;;25.22;60.71;100284.09;10411051;28;97623;-78
2023/07/03 02:24:35;;;;;;;2.38;1.65;;;;;;;25.00;61.16;100290.75;10422575;28;96680;-78
2023/07/03 02:29:39;;;;;;;2.25;1.85;;;;;;;25.04;61.04;100289.47;10383252;27;96782;-78
2023/07/03 02:34:43;;;;;;;2.42;1.60;;;;;;;24.72;61.90;100284.50;10375748;28;97578;-78
2023/07/03 02:39:46;;;;;;;2.13;1.50;;;;;;;24.74;61.81;100290.59;10376346;28;96903;-78
2023/07/03 02:44:51;;;;;;;3.10;1.90;;;;;;;24.65;62.11;100286.09;10378002;28;96861;-78
2023/07/03 02:49:54;;;;;;;3.08;1.90;;;;;;;24.51;62.54;100291.16;10379529;28;97596;-78
2023/07/03 02:54:58;;;;;;;2.77;1.90;;;;;;;24.38;62.82;100286.09;10379110;28;96859;-78
2023/07/03 03:00:03;;;;;;;;;;;;;;;24.38;63.12;100288.78;10379452;28;96614;-78
2023/07/03 03:05:07;;;;;;;1.90;1.50;;;;;;;24.35;62.54;100288.22;10379399;28;97064;-78
2023/07/03 03:10:11;;;;;;;2.88;1.77;;;;;;;24.62;61.99;100282.84;10406792;28;96781;-78
2023/07/03 03:15:17;;;;;;;3.13;1.90;;;;;;;24.72;61.95;100284.50;10421513;28;96717;-78
2023/07/03 03:20:20;;;;;;;2.45;1.88;;;;;;;24.74;61.80;100293.28;10419941;28;96759;-78
2023/07/03 03:25:23;;;;;;;2.57;1.90;;;;;;;24.45;62.72;100292.56;10407755;27;97281;-77
2023/07/03 03:30:28;;;;;;;2.23;1.67;;;;;;;24.64;62.39;100291.63;10418315;27;97048;-78
2023/07/03 03:35:32;;;;;;;3.00;2.03;;;;;;;24.66;62.18;100285.13;10399937;28;97003;-77
2023/07/03 03:40:35;;;;;;;2.13;1.63;;;;;;;24.55;62.77;100287.16;10377434;28;96845;-78
2023/07/03 03:45:40;;;;;;;2.25;1.67;;;;;;;24.36;63.40;100292.63;10344905;28;96785;-78
2023/07/03 03:50:43;;;;;;;2.85;1.77;;;;;;;24.58;62.78;100285.00;10343394;28;96794;-78
2023/07/03 03:55:49;;;;;;;2.80;1.80;;;;;;;24.52;63.03;100295.50;10374347;28;97173;-78
2023/07/03 04:00:54;;;;;;;2.25;1.50;;;;;;;24.72;62.53;100289.88;10368526;28;97773;-78
2023/07/03 04:05:58;;;;;;;5.63;2.00;;;;;;;24.47;63.10;100298.66;10384654;28;96916;-78
2023/07/03 04:11:01;;;;;;;2.70;1.97;;;;;;;24.32;63.76;100299.28;10384753;28;97369;-78
2023/07/03 04:16:06;;;;;;;2.50;1.70;;;;;;;24.45;63.26;100294.41;10383365;28;96921;-78
2023/07/03 04:21:09;;;;;;;2.45;1.80;;;;;;;24.49;62.91;100301.19;10382480;28;96684;-78
2023/07/03 04:26:12;;;;;;;2.53;1.80;;;;;;;24.07;64.22;100299.88;10382767;28;97059;-78
2023/07/03 04:31:17;;;;;;;3.07;1.70;;;;;;;23.95;64.52;100301.03;10383247;28;96820;-78
2023/07/03 04:36:21;;;;;;;4.30;1.88;;;;;;;24.09;64.27;100297.91;10411552;28;96953;-78
2023/07/03 04:41:26;;;;;;;3.13;1.80;;;;;;;23.90;64.86;100301.47;10381893;28;97386;-78
2023/07/03 04:46:31;;;;;;;2.65;1.98;;;;;;;23.96;64.93;100294.69;10382911;28;96682;-78
2023/07/03 04:51:35;;;;;;;2.63;2.03;;;;;;;23.85;64.82;100292.13;10397144;28;96712;-78
2023/07/03 04:56:39;;;;;;;2.58;2.03;;;;;;;23.76;65.35;100295.69;10353677;28;96716;-78
2023/07/03 05:01:43;;;;;;;3.60;1.80;;;;;;;23.73;65.23;100304.03;10380971;28;96775;-78
2023/07/03 05:06:47;;;;;;;3.13;1.80;;;;;;;23.51;65.89;100308.69;10381152;28;96789;-78
2023/07/03 05:11:51;;;;;;;2.70;1.60;;;;;;;23.20;66.84;100317.84;10381997;28;97711;-78
2023/07/03 05:16:56;;;;;;;4.05;2.08;;;;;;;23.40;66.12;100314.19;10380130;28;96767;-78
2023/07/03 05:21:59;;;;;;;3.15;1.60;;;;;;;23.20;66.80;100320.53;10381595;28;96792;-77
2023/07/03 05:27:03;;;;;;;2.38;1.75;;;;;;;23.35;66.43;100323.66;10396165;28;97009;-78
2023/07/03 05:32:08;;;;;;;3.00;2.08;;;;;;;23.62;65.81;100322.00;10381242;28;96784;-78
2023/07/03 05:37:12;;;;;;;4.63;2.03;;;;;;;23.80;65.23;100314.09;10380195;28;96832;-78
2023/07/03 05:42:15;;;;;;;4.73;2.30;;;;;;;23.94;65.12;100327.09;10400631;28;96831;-78
2023/07/03 05:47:20;;;;;;;2.50;1.53;;;;;;;23.84;65.57;100326.22;10404660;27;96928;-78
2023/07/03 05:52:23;;;;;;;2.53;1.77;;;;;;;23.91;65.32;100321.16;10379918;28;97340;-78
2023/07/03 05:57:27;;;;;;;2.57;1.83;;;;;;;23.80;65.72;100324.84;10385435;28;97338;-78
2023/07/03 06:02:31;;;;;;;2.37;1.93;;;;;;;23.83;65.68;100324.53;10377531;28;97147;-78
2023/07/03 06:07:35;;;;;;;3.30;2.10;;;;;;;23.76;66.23;100334.16;10368242;28;97704;-78
2023/07/03 06:12:38;;;;;;;2.70;2.00;;;;;;;23.63;66.63;100329.06;10378524;28;98469;-78
2023/07/03 06:17:44;;;;;;;2.60;1.90;;;;;;;23.56;66.94;100337.84;10377511;28;96862;-77
2023/07/03 06:22:48;;;;;;;3.65;2.35;;;;;;;23.59;67.27;100342.94;10377408;28;96931;-77
2023/07/03 06:27:51;;;;;;;2.80;2.17;;;;;;;23.84;66.61;100345.03;10376363;28;97589;-77
2023/07/03 06:32:56;;;;;;;3.03;2.10;;;;;;;23.98;66.30;100349.16;10391469;28;96718;-77
2023/07/03 06:38:02;;;;;;;3.92;2.50;;;;;;;23.98;66.62;100349.97;10359565;28;97095;-78
2023/07/03 06:43:06;;;;;;;4.45;2.60;;;;;;;23.98;66.91;100355.34;10338933;28;96859;-78
2023/07/03 06:48:10;;;;;;;3.20;1.90;;;;;;;23.97;66.95;100356.38;10369120;28;97550;-78
2023/07/03 06:53:14;;;;;;;3.20;2.33;;;;;;;24.32;66.34;100358.47;10377502;28;97711;-78
2023/07/03 06:58:17;;;;;;;3.75;2.42;;;;;;;24.43;66.10;100360.97;10374102;28;97621;-77
2023/07/03 07:03:22;;;;;;;3.40;2.37;;;;;;;24.57;65.79;100363.19;10366112;28;98668;-77
2023/07/03 07:08:26;;;;;;;3.05;1.95;;;;;;;24.79;65.15;100363.66;10375913;28;96843;-77
2023/07/03 07:13:30;;;;;;;4.07;2.57;;;;;;;25.07;64.48;100361.03;10376946;28;96902;-77
2023/07/03 07:18:35;;;;;;;3.30;2.30;;;;;;;25.07;64.68;100356.47;10372338;28;96863;-78
2023/07/03 07:23:38;;;;;;;3.67;2.42;;;;;;;25.08;64.96;100363.59;10391013;28;97164;-75
2023/07/03 07:28:41;;;;;;;3.60;2.23;;;;;;;25.41;64.53;100354.00;10389571;28;96968;-76
2023/07/03 07:33:46;;;;;;;3.23;2.17;;;;;;;25.53;63.95;100367.13;10370853;28;100365;-77
2023/07/03 07:38:50;;;;;;;3.72;2.40;;;;;;;25.74;63.37;100373.06;10372204;28;97173;-77
2023/07/03 07:43:58;;;;;;;2.78;2.30;;;;;;;25.99;62.79;100378.72;10366511;28;99270;-82
2023/07/03 07:49:03;;;;;;;2.42;2.08;;;;;;;25.88;62.79;100386.00;10362960;28;96896;-79
2023/07/03 07:54:07;;;;;;;3.35;2.35;;;;;;;25.84;62.85;100383.78;10342758;28;96869;-80
2023/07/03 07:59:10;;;;;;;2.80;2.37;;;;;;;25.92;62.59;100386.53;10363456;28;96961;-80
2023/07/03 08:04:15;;;;;;;2.97;2.43;;;;;;;25.92;62.46;100386.53;10364566;28;97759;-78
2023/07/03 08:09:18;;;;;;;4.15;2.10;;;;;;;26.04;62.33;100384.47;10361436;28;96806;-81
2023/07/03 08:14:22;;;;;;;3.27;2.20;;;;;;;26.21;61.62;100387.16;10357507;28;98908;-81
2023/07/03 08:19:26;;;;;;;3.45;2.35;;;;;;;26.26;61.42;100386.69;10375521;28;97229;-81
2023/07/03 08:24:30;;;;;;;2.80;2.30;;;;;;;26.51;60.10;100383.16;10371527;28;97268;-83
2023/07/03 08:29:33;;;;;;;4.03;2.50;;;;;;;26.46;60.75;100388.19;10355727;28;98064;-78
2023/07/03 08:34:38;;;;;;;4.30;2.80;;;;;;;26.79;59.67;100390.94;10368593;28;96909;-78
2023/07/03 08:39:42;;;;;;;3.00;2.30;;;;;;;26.96;59.40;100383.75;10372525;28;98144;-78
2023/07/03 08:44:45;;;;;;;2.72;2.13;;;;;;;27.35;58.26;100381.41;10363471;28;101105;-78
2023/07/03 08:50:11;;;;;;;2.78;2.22;;;;;;;27.28;58.50;100381.22;10356630;28;97130;-78
2023/07/03 08:55:24;;;;;;;3.40;2.25;;;;;;;27.59;57.48;100387.75;10374591;28;98773;-78
2023/07/03 09:00:30;;;;;;;2.80;2.25;;;;;;;27.79;56.82;100389.16;10354720;28;96810;-78
2023/07/03 09:05:45;;;;;;;3.17;2.20;;;;;;;27.89;56.76;100391.72;10374435;28;97079;-78
2023/07/03 09:10:50;;;;;;;3.10;2.20;;;;;;;28.34;56.17;100386.66;10379688;28;96860;-77
2023/07/03 09:16:00;;;;;;;3.13;2.20;;;;;;;28.44;56.17;100400.00;10375960;28;97676;-78
2023/07/03 09:21:04;;;;;;;2.95;1.92;;;;;;;28.67;55.05;100387.44;10377717;28;96730;-82
2023/07/03 09:26:14;;;;;;;3.60;2.50;;;;;;;28.92;54.70;100389.09;10364318;28;96902;-82
2023/07/03 09:31:18;;;;;;;3.13;2.20;;;;;;;29.25;53.97;100389.81;10380109;28;97651;-82
2023/07/03 09:36:25;;;;;;;;;;;;;;;29.44;52.82;100390.22;10380549;28;96678;-82
2023/07/03 09:41:30;;;;;;;2.88;2.08;;;;;;;29.69;53.30;100391.81;10380569;28;96741;-82
2023/07/03 09:46:34;;;;;;;2.53;1.80;;;;;;;29.91;52.79;100384.69;10372482;28;97394;-82
2023/07/03 09:51:39;;;;;;;3.05;2.20;;;;;;;29.86;52.33;100387.09;10379616;28;97454;-82
2023/07/03 09:56:42;;;;;;;2.13;1.92;;;;;;;30.08;52.17;100395.25;10394831;28;98051;-81
2023/07/03 10:01:45;;;;;;;4.05;2.40;;;;;;;30.22;51.63;100394.47;10394517;27;96930;-81
2023/07/03 10:07:00;;;;;;;2.53;2.05;;;;;;;30.33;51.29;100398.63;10361352;28;96843;-81
2023/07/03 10:12:09;;;;;;;2.63;2.20;;;;;;;30.58;51.54;100397.34;10370288;28;97103;-80
2023/07/03 10:17:15;;;;;;;3.15;2.08;;;;;;;30.77;50.97;100402.28;10377225;28;98716;-83
2023/07/03 10:22:21;;;;;;;3.78;2.00;;;;;;;30.84;50.40;100402.38;10373148;28;97949;-92
2023/07/03 10:27:28;;;;;;;2.33;1.77;;;;;;;30.98;49.93;100396.09;10381555;28;96883;-90
2023/07/03 10:32:35;;;;;;;2.40;1.77;;;;;;;31.00;49.35;100391.31;10386035;28;96848;-92
2023/07/03 10:37:48;;;;;;;3.28;1.80;;;;;;;31.05;48.54;100392.44;10388360;28;98486;-93
2023/07/03 10:42:55;;;;;;;2.85;1.83;;;;;;;31.27;49.12;100402.38;10385249;28;96655;-91
2023/07/03 10:48:02;;;;;;;2.28;1.80;;;;;;;31.39;49.09;100391.03;10386922;28;97661;-90
2023/07/03 10:53:14;;;;;;;4.05;2.70;;;;;;;31.42;49.18;100399.66;10389076;28;96748;-96
2023/07/03 10:58:25;;;;;;;3.05;2.20;;;;;;;31.52;48.54;100396.63;10385669;28;96870;-91
2023/07/03 11:03:37;;;;;;;4.50;2.42;;;;;;;31.54;48.54;100398.13;10389852;28;96974;-92
2023/07/03 11:08:55;;;;;;;4.78;2.83;;;;;;;31.64;49.24;100405.97;10384988;28;97810;-93
2023/07/03 11:14:06;;;;;;;4.72;2.75;;;;;;;31.67;47.81;100408.31;10390671;28;97574;-90
2023/07/03 11:19:19;;;;;;;6.55;2.65;;;;;;;31.84;46.87;100401.63;10387235;28;96663;-94
2023/07/03 11:24:31;;;;;;;3.22;2.47;;;;;;;31.78;47.42;100415.97;10425523;28;97138;-91
2023/07/03 11:29:37;;;;;;;3.80;2.45;;;;;;;31.70;47.24;100416.91;10427279;28;96754;-93
2023/07/03 11:34:42;;;;;;;6.05;3.25;;;;;;;31.95;47.14;100418.28;10410574;28;96878;-91
2023/07/03 11:39:53;;;;;;;3.85;2.63;;;;;;;31.91;46.73;100416.16;10408479;28;96666;-91
2023/07/03 11:45:00;;;;;;;4.57;3.13;;;;;;;32.08;46.94;100426.56;10429734;28;96665;-92
2023/07/03 11:50:07;;;;;;;6.55;3.17;;;;;;;31.92;46.63;100426.00;10428584;28;97286;-92
2023/07/03 11:55:20;;;;;;;6.30;3.17;;;;;;;32.04;45.97;100422.56;10427591;28;96779;-90
2023/07/03 12:00:31;;;;;;;5.07;3.28;;;;;;;32.23;45.77;100421.91;10429386;28;96581;-91
2023/07/03 12:05:56;;;;;;;5.25;3.30;;;;;;;32.25;45.38;100427.16;10422206;27;96800;-92
2023/07/03 12:11:05;;;;;;;;;;;;;;;32.30;45.00;100424.69;10395184;28;96659;-90
2023/07/03 12:16:17;;;;;;;5.57;2.83;;;;;;;32.51;44.31;100432.03;10396787;28;96792;-89
2023/07/03 12:21:22;;;;;;;5.87;3.47;;;;;;;32.66;44.82;100422.72;10396300;28;96658;-87
2023/07/03 12:26:29;;;;;;;6.22;3.60;;;;;;;32.68;44.47;100420.66;10383897;22;97004;-90
2023/07/03 12:31:32;;;;;;;5.95;3.75;;;;;;;32.95;43.52;100419.81;10353770;28;96730;-94
2023/07/03 12:36:37;;;;;;;6.70;3.92;;;;;;;33.10;43.90;100417.81;10363275;28;96995;-90
2023/07/03 12:41:45;;;;;;;5.03;3.53;;;;;;;33.15;42.83;100412.59;10350285;28;97370;-92
2023/07/03 12:46:49;;;;;;;8.27;4.20;;;;;;;33.10;42.79;100414.25;10372201;28;96929;-94
2023/07/03 12:51:54;;;;;;;7.65;3.78;;;;;;;33.00;43.34;100413.75;10393964;28;96664;-91
2023/07/03 12:57:00;;;;;;;5.03;3.75;;;;;;;33.08;43.02;100417.16;10394675;28;97624;-92
2023/07/03 13:02:04;;;;;;;5.65;4.10;;;;;;;33.05;42.75;100403.91;10389651;28;96986;-91
2023/07/03 13:07:13;;;;;;;5.32;3.60;;;;;;;32.92;42.75;100412.03;10351906;28;96562;-91
2023/07/03 13:12:22;;;;;;;6.07;4.15;;;;;;;33.04;42.10;100406.84;10353822;28;96669;-91
2023/07/03 13:17:30;;;;;;;6.05;3.55;;;;;;;33.19;41.94;100399.41;10355659;28;96661;-90
2023/07/03 13:22:33;;;;;;;5.38;3.40;;;;;;;33.02;42.05;100404.31;10351047;28;96771;-92
2023/07/03 13:27:38;;;;;;;5.10;3.47;;;;;;;33.14;42.14;100407.34;10354440;28;96933;-90
2023/07/03 13:32:56;;;;;;;5.40;3.25;;;;;;;33.13;41.33;100409.22;10354326;28;96583;-90
2023/07/03 13:38:20;;;;;;;5.45;3.60;;;;;;;33.17;41.59;100412.38;10372013;28;97278;-92
2023/07/03 13:43:29;;;;;;;5.45;3.70;;;;;;;32.62;41.71;100412.44;10390498;28;97013;-95
2023/07/03 13:48:34;;;;;;;6.18;3.85;;;;;;;32.82;41.81;100414.25;10391695;28;96762;-91
2023/07/03 13:53:39;;;;;;;5.95;3.30;;;;;;;32.87;41.27;100417.25;10392161;28;96645;-91
2023/07/03 13:58:49;;;;;;;3.90;3.13;;;;;;;33.00;40.85;100421.94;10396437;28;96955;-91
2023/07/03 14:03:54;;;;;;;4.00;2.78;;;;;;;33.27;40.46;100416.44;10396334;28;96680;-94
2023/07/03 14:09:02;;;;;;;4.22;3.00;;;;;;;33.32;40.04;100424.84;10395376;28;96648;-92
2023/07/03 14:14:13;;;;;;;4.60;3.85;;;;;;;32.90;40.38;100425.00;10387235;28;97051;-90
2023/07/03 14:19:18;;;;;;;4.57;2.80;;;;;;;33.14;40.51;100424.53;10391659;28;97250;-92
2023/07/03 14:24:22;;;;;;;3.65;2.65;;;;;;;33.13;39.88;100424.72;10352300;28;96547;-91
2023/07/03 14:29:30;;;;;;;4.28;2.63;;;;;;;33.28;38.97;100436.34;10375300;28;96804;-87
2023/07/03 14:34:34;;;;;;;3.90;2.70;;;;;;;33.24;38.80;100438.63;10389715;28;96860;-91
2023/07/03 14:39:41;;;;;;;3.47;2.33;;;;;;;33.45;37.69;100429.56;10396626;28;96656;-89
2023/07/03 14:44:47;;;;;;;4.05;2.90;;;;;;;33.56;37.18;100428.97;10393332;28;96624;-92
2023/07/03 14:49:52;;;;;;;3.28;2.55;;;;;;;33.64;36.98;100425.22;10353863;28;96701;-94
2023/07/03 14:55:00;;;;;;;3.65;2.65;;;;;;;33.50;37.12;100418.88;10352718;28;97169;-94
2023/07/03 15:00:14;;;;;;;3.40;2.33;;;;;;;33.49;37.58;100426.22;10352745;28;97100;-90
2023/07/03 15:05:21;;;;;;;3.95;2.45;;;;;;;33.40;36.67;100416.50;10390116;28;96600;-92
2023/07/03 15:10:26;;;;;;;3.35;2.28;;;;;;;33.45;36.73;100422.19;10392972;28;96688;-88
2023/07/03 15:15:32;;;;;;;4.45;2.63;;;;;;;33.45;36.61;100411.28;10389629;28;96710;-90
2023/07/03 15:20:39;;;;;;;3.33;2.40;;;;;;;33.32;36.70;100411.22;10366620;28;97038;-91
2023/07/03 15:25:44;;;;;;;3.58;2.35;;;;;;;33.16;36.62;100419.72;10345000;28;96685;-93
2023/07/03 15:30:53;;;;;;;2.67;2.40;;;;;;;33.46;36.72;100425.78;10354163;28;96812;-90
2023/07/03 15:36:01;;;;;;;4.05;2.65;;;;;;;33.31;36.90;100423.13;10358391;28;96662;-91
2023/07/03 15:41:10;;;;;;;3.47;2.55;;;;;;;33.17;37.05;100424.16;10388436;28;97463;-91
2023/07/03 15:46:20;;;;;;;4.20;2.53;;;;;;;32.94;37.11;100417.28;10370715;28;96585;-93
2023/07/03 15:51:25;;;;;;;4.25;2.72;;;;;;;32.87;37.26;100409.06;10355751;28;96687;-90
2023/07/03 15:56:31;;;;;;;4.10;2.85;;;;;;;32.85;37.01;100405.66;10396476;28;97115;-93
2023/07/03 16:01:42;;;;;;;3.78;2.83;;;;;;;32.81;37.69;100398.09;10401341;28;96750;-94
2023/07/03 16:06:48;;;;;;;4.15;2.92;;;;;;;32.68;37.84;100398.84;10395273;28;96836;-92
2023/07/03 16:11:53;;;;;;;3.55;2.80;;;;;;;32.47;38.60;100398.88;10396978;28;96695;-90
2023/07/03 16:17:01;;;;;;;4.45;3.30;;;;;;;32.36;38.36;100388.50;10394529;28;96656;-93
2023/07/03 16:22:07;;;;;;;4.53;3.30;;;;;;;31.99;39.72;100392.38;10370006;28;96691;-88
2023/07/03 16:27:13;;;;;;;4.60;3.10;;;;;;;32.12;39.32;100388.91;10359803;28;96606;-87
2023/07/03 16:32:22;;;;;;;4.93;3.53;;;;;;;32.14;39.25;100387.69;10355513;28;97317;-93
2023/07/03 16:37:27;;;;;;;4.93;3.45;;;;;;;31.94;40.17;100396.69;10355656;28;96806;-91
2023/07/03 16:42:33;;;;;;;4.95;3.30;;;;;;;32.00;39.91;100388.59;10354861;28;96628;-92
2023/07/03 16:47:42;;;;;;;5.18;3.33;;;;;;;31.82;39.92;100404.56;10392673;28;96949;-92
2023/07/03 16:52:48;;;;;;;6.28;3.42;;;;;;;31.68;40.37;100393.66;10395045;28;96959;-93
2023/07/03 16:57:54;;;;;;;5.85;3.38;;;;;;;31.53;40.57;100396.41;10392241;28;96777;-91
2023/07/03 17:03:03;;;;;;;5.65;3.63;;;;;;;31.53;40.34;100401.03;10393078;28;97148;-93
2023/07/03 17:08:11;;;;;;;5.63;3.50;;;;;;;31.55;40.58;100396.22;10394022;28;96721;-90
2023/07/03 17:13:16;;;;;;;4.68;3.28;;;;;;;31.42;40.13;100398.81;10389970;28;96878;-89
2023/07/03 17:18:26;;;;;;;5.07;3.20;;;;;;;31.33;40.75;100401.63;10375147;28;96767;-90
2023/07/03 17:23:31;;;;;;;4.55;3.25;;;;;;;31.22;39.66;100402.09;10350239;28;96858;-93
2023/07/03 17:28:35;;;;;;;4.18;3.33;;;;;;;31.27;40.13;100401.53;10349432;28;96712;-89
2023/07/03 17:33:44;;;;;;;4.90;3.42;;;;;;;31.10;40.48;100398.16;10348908;28;97463;-89
2023/07/03 17:38:48;;;;;;;4.53;3.03;;;;;;;31.06;40.48;100398.72;10388114;28;96772;-91
2023/07/03 17:43:56;;;;;;;5.55;3.83;;;;;;;30.89;41.16;100398.06;10388845;28;96704;-91
2023/07/03 17:49:05;;;;;;;4.75;2.88;;;;;;;30.95;40.65;100408.19;10388232;28;96646;-94
2023/07/03 17:54:10;;;;;;;4.60;3.33;;;;;;;30.87;41.36;100400.13;10360474;28;97176;-89
2023/07/03 17:59:15;;;;;;;5.25;3.28;;;;;;;30.70;41.97;100417.63;10344140;28;97409;-92
2023/07/03 18:04:23;;;;;;;4.78;2.92;;;;;;;30.33;42.17;100417.63;10345095;28;97817;-91
2023/07/03 18:09:29;;;;;;;4.50;3.00;;;;;;;30.18;41.99;100416.72;10345760;28;96808;-91
2023/07/03 18:14:35;;;;;;;4.22;3.22;;;;;;;29.91;41.87;100418.09;10344632;28;96692;-90
2023/07/03 18:19:45;;;;;;;5.60;2.97;;;;;;;29.71;41.37;100422.28;10342914;28;97559;-85
2023/07/03 18:24:51;;;;;;;4.05;2.70;;;;;;;29.65;41.44;100431.16;10344784;28;96846;-90
2023/07/03 18:29:56;;;;;;;4.00;2.80;;;;;;;29.64;41.56;100437.59;10344047;28;96680;-89
2023/07/03 18:35:03;;;;;;;4.00;2.40;;;;;;;29.40;40.49;100434.97;10344070;28;97975;-91
2023/07/03 18:40:09;;;;;;;4.20;2.35;;;;;;;29.18;40.93;100435.75;10343465;28;96755;-93
2023/07/03 18:45:14;;;;;;;3.55;2.30;;;;;;;29.18;41.53;100449.31;10354643;28;96927;-88
2023/07/03 18:50:22;;;;;;;4.63;2.50;;;;;;;28.98;41.43;100450.72;10341889;28;97062;-91
2023/07/03 18:55:26;;;;;;;2.70;2.05;;;;;;;28.69;40.96;100459.38;10342186;28;96752;-89
2023/07/03 19:00:32;;;;;;;4.07;2.00;;;;;;;28.68;41.03;100470.38;10356562;28;96626;-88
2023/07/03 19:05:48;;;;;;;2.83;1.85;;;;;;;28.62;40.75;100466.50;10383469;28;96707;-88
2023/07/03 19:11:11;;;;;;;3.53;2.33;;;;;;;28.54;41.12;100477.34;10376522;28;96650;-89
2023/07/03 19:16:17;;;;;;;3.42;1.90;;;;;;;28.37;41.31;100478.38;10378874;28;96769;-89
2023/07/03 19:21:26;;;;;;;4.40;1.98;;;;;;;28.33;41.66;100482.41;10340447;28;96717;-91
2023/07/03 19:26:31;;;;;;;3.30;2.20;;;;;;;28.12;42.10;100494.72;10341692;28;96828;-89
2023/07/03 19:31:35;;;;;;;2.92;1.98;;;;;;;28.07;42.44;100503.31;10340372;28;96745;-88
2023/07/03 19:36:43;;;;;;;3.83;2.10;;;;;;;27.91;43.03;100503.28;10373697;28;97549;-88
2023/07/03 19:41:47;;;;;;;3.25;2.28;;;;;;;27.86;43.49;100513.75;10382364;28;96709;-92
2023/07/03 19:46:51;;;;;;;3.47;2.38;;;;;;;27.78;44.25;100528.13;10380540;28;96689;-90
2023/07/03 19:51:59;;;;;;;3.47;2.45;;;;;;;27.60;44.36;100530.03;10382045;28;96693;-92
2023/07/03 19:57:04;;;;;;;4.88;2.17;;;;;;;27.38;45.42;100546.81;10382315;28;96634;-91
2023/07/03 20:02:09;;;;;;;4.28;3.05;;;;;;;27.33;45.98;100556.41;10382005;28;96810;-89
2023/07/03 20:07:15;;;;;;;4.45;2.47;;;;;;;26.88;47.31;100560.13;10376024;28;96690;-89
2023/07/03 20:12:19;;;;;;;4.68;2.90;;;;;;;26.97;47.69;100566.44;10340769;28;96722;-91
2023/07/03 20:17:23;;;;;;;4.45;3.03;;;;;;;26.68;48.58;100571.28;10340529;28;96949;-92
2023/07/03 20:22:34;;;;;;;4.75;3.00;;;;;;;26.53;49.00;100565.56;10340378;28;96736;-89
2023/07/03 20:27:40;;;;;;;5.30;2.90;;;;;;;26.49;49.37;100582.25;10371876;28;96711;-89
2023/07/03 20:32:47;;;;;;;5.70;3.00;;;;;;;26.40;49.66;100575.88;10386749;28;96623;-90
2023/07/03 20:37:55;;;;;;;4.13;2.95;;;;;;;26.33;49.99;100582.03;10390679;28;96709;-92
2023/07/03 20:43:00;;;;;;;4.50;2.92;;;;;;;26.33;50.05;100573.94;10390260;28;96740;-87
2023/07/03 20:48:04;;;;;;;4.82;3.08;;;;;;;26.19;50.60;100585.25;10388524;28;96708;-91
2023/07/03 20:53:15;;;;;;;4.65;3.25;;;;;;;26.02;51.65;100591.47;10388993;28;96710;-91
2023/07/03 20:58:21;;;;;;;5.30;3.42;;;;;;;25.98;51.63;100595.44;10388126;28;97018;-91
2023/07/03 21:03:27;;;;;;;4.50;3.03;;;;;;;25.89;51.78;100603.47;10387106;28;96638;-90
2023/07/03 21:08:37;;;;;;;5.10;3.42;;;;;;;25.75;52.83;100621.97;10388570;28;96656;-91
2023/07/03 21:13:43;;;;;;;4.85;3.33;;;;;;;25.77;52.26;100626.22;10390072;28;97980;-90
2023/07/03 21:18:48;;;;;;;6.90;3.88;;;;;;;25.33;53.22;100637.66;10387252;28;96933;-93
2023/07/03 21:23:56;;;;;;;6.03;3.50;;;;;;;25.42;53.23;100634.09;10347448;28;97224;-91
2023/07/03 21:29:01;;;;;;;6.78;3.67;;;;;;;25.67;52.57;100640.69;10348044;28;96691;-92
2023/07/03 21:34:07;;;;;;;4.15;3.08;;;;;;;25.66;52.76;100650.63;10363564;28;96662;-94
2023/07/03 21:39:16;;;;;;;5.32;3.65;;;;;;;25.54;53.33;100648.25;10353381;28;96760;-93
2023/07/03 21:44:20;;;;;;;5.95;3.90;;;;;;;25.38;53.93;100651.53;10342546;28;97211;-92
2023/07/03 21:49:25;;;;;;;4.75;3.38;;;;;;;25.14;54.66;100663.81;10348938;28;97193;-93
2023/07/03 21:54:32;;;;;;;5.30;3.33;;;;;;;25.12;55.11;100663.91;10386054;28;96682;-94
2023/07/03 21:59:36;;;;;;;4.82;3.45;;;;;;;24.99;55.42;100660.69;10385491;28;96561;-93
2023/07/03 22:04:42;;;;;;;7.18;3.22;;;;;;;24.83;55.97;100658.53;10387224;28;96965;-93
2023/07/03 22:09:51;;;;;;;4.43;3.00;;;;;;;24.92;55.75;100664.91;10392584;28;96681;-94
2023/07/03 22:14:55;;;;;;;5.85;3.53;;;;;;;24.92;55.67;100667.59;10389300;28;96783;-91
2023/07/03 22:20:00;;;;;;;5.00;3.08;;;;;;;24.83;55.81;100669.28;10390589;28;97358;-95
2023/07/03 22:25:08;;;;;;;5.95;3.33;;;;;;;24.76;56.25;100675.38;10352160;28;96717;-94
2023/07/03 22:30:14;;;;;;;4.95;3.20;;;;;;;24.71;56.36;100677.63;10352244;28;96604;-94
2023/07/03 22:35:20;;;;;;;5.03;3.33;;;;;;;24.72;56.48;100673.97;10351647;28;96671;-94
2023/07/03 22:40:27;;;;;;;5.00;3.40;;;;;;;24.50;56.84;100674.19;10345841;28;96849;-94
2023/07/03 22:45:31;;;;;;;3.97;2.85;;;;;;;24.49;57.09;100675.19;10348768;28;97333;-94
2023/07/03 22:50:39;;;;;;;4.68;3.03;;;;;;;24.51;56.85;100673.22;10353749;28;96663;-92
2023/07/03 22:55:47;;;;;;;5.07;2.90;;;;;;;24.11;58.12;100667.00;10352343;28;96760;-95
2023/07/03 23:00:52;;;;;;;4.53;2.53;;;;;;;24.14;57.97;100672.94;10351107;28;96969;-94
2023/07/03 23:05:57;;;;;;;4.65;3.08;;;;;;;24.13;57.98;100671.25;10351000;28;96557;-94
2023/07/03 23:11:07;;;;;;;4.07;2.72;;;;;;;24.01;58.45;100680.41;10351561;28;96609;-93
2023/07/03 23:16:11;;;;;;;4.50;2.78;;;;;;;23.97;58.42;100684.34;10369467;28;96947;-94
2023/07/03 23:21:16;;;;;;;4.93;2.67;;;;;;;23.67;58.92;100678.97;10371928;28;96716;-94
2023/07/03 23:26:24;;;;;;;4.55;2.80;;;;;;;23.58;59.24;100686.00;10346202;28;96700;-91